Time;durP1;ratioP1;P1;durP2;ratioP2;P2;SDS_P1;SDS_P2;PMS_P1;PMS_P2;Temp;Humidity;BMP_temperature;BMP_pressure;BME280_temperature;BME280_humidity;BME280_pressure;Samples;Min_cycle;Max_cycle;Signal;HPM_P1;HPM_P2
2022/05/08 00:02:16;;;;;;;10.50;6.40;;;12.60;78.70;;;;;;5093038;28;20051;-28
2022/05/08 00:04:42;;;;;;;8.90;5.95;;;12.50;78.00;;;;;;5092967;28;20024;-27
2022/05/08 00:07:07;;;;;;;9.25;5.90;;;12.50;78.00;;;;;;5092882;28;20047;-33
2022/05/08 00:09:33;;;;;;;11.63;6.63;;;12.50;78.00;;;;;;5092877;28;20360;-27
2022/05/08 00:11:59;;;;;;;11.95;6.28;;;12.50;78.10;;;;;;5093051;28;20028;-29
2022/05/08 00:14:24;;;;;;;11.57;6.50;;;12.50;78.20;;;;;;5092807;28;20020;-28
2022/05/08 00:16:50;;;;;;;11.27;6.00;;;12.40;78.10;;;;;;5092761;28;20073;-29
2022/05/08 00:19:16;;;;;;;10.77;5.75;;;12.40;78.10;;;;;;5092669;28;20020;-28
2022/05/08 00:21:42;;;;;;;10.95;6.32;;;12.40;78.10;;;;;;5091120;28;20028;-28
2022/05/08 00:24:08;;;;;;;12.95;6.80;;;12.40;78.10;;;;;;5092741;28;20032;-30
2022/05/08 00:26:33;;;;;;;10.30;6.03;;;12.40;78.10;;;;;;5091453;28;20486;-29
2022/05/08 00:28:59;;;;;;;12.18;7.50;;;12.40;78.10;;;;;;5092498;28;20032;-29
2022/05/08 00:31:25;;;;;;;10.93;6.78;;;12.40;78.10;;;;;;5092595;28;20464;-33
2022/05/08 00:33:51;;;;;;;13.20;6.90;;;12.40;78.30;;;;;;5092943;28;20020;-27
2022/05/08 00:36:16;;;;;;;13.52;7.18;;;12.30;78.30;;;;;;5092505;28;20021;-28
2022/05/08 00:38:42;;;;;;;8.93;5.85;;;12.30;78.40;;;;;;5092555;28;20040;-29
2022/05/08 00:41:08;;;;;;;16.05;7.05;;;12.20;78.30;;;;;;5092581;28;20028;-28
2022/05/08 00:43:40;;;;;;;11.15;6.88;;;12.20;78.40;;;;;;5092841;28;20420;-31
2022/05/08 00:46:10;;;;;;;12.70;6.60;;;12.20;78.30;;;;;;5092463;28;20384;-27
2022/05/08 00:48:37;;;;;;;13.98;7.00;;;12.20;78.30;;;;;;5092424;28;20396;-30
2022/05/08 00:51:06;;;;;;;11.68;6.32;;;12.20;78.90;;;;;;5091187;28;20392;-30
2022/05/08 00:53:37;;;;;;;11.02;5.93;;;12.20;78.30;;;;;;5092667;28;20044;-29
2022/05/08 00:56:05;;;;;;;13.32;6.60;;;12.10;78.20;;;;;;5092425;28;20052;-27
2022/05/08 00:58:31;;;;;;;11.82;6.43;;;12.10;78.00;;;;;;5092373;28;20043;-28
2022/05/08 01:00:58;;;;;;;11.48;6.32;;;12.10;78.00;;;;;;5092379;28;20395;-27
2022/05/08 01:03:23;;;;;;;11.57;5.53;;;12.00;78.00;;;;;;5092349;28;20028;-29
2022/05/08 01:05:52;;;;;;;10.57;5.45;;;12.00;77.90;;;;;;5092219;28;20031;-28
2022/05/08 01:08:18;;;;;;;13.63;6.00;;;12.00;77.90;;;;;;5092509;28;20016;-29
2022/05/08 01:10:43;;;;;;;12.65;5.60;;;12.00;77.70;;;;;;5094006;28;20099;-29
2022/05/08 01:13:09;;;;;;;12.10;5.05;;;11.90;77.60;;;;;;5095964;28;20031;-36
2022/05/08 01:15:43;;;;;;;14.77;5.75;;;11.90;77.50;;;;;;5095873;28;20020;-28
2022/05/08 01:18:11;;;;;;;9.35;5.40;;;11.90;77.40;;;;;;5095851;28;20028;-27
2022/05/08 01:20:37;;;;;;;12.48;4.70;;;11.90;77.30;;;;;;5095688;28;20188;-29
2022/05/08 01:23:04;;;;;;;15.48;4.57;;;11.90;77.20;;;;;;5095804;28;20441;-34
2022/05/08 01:25:29;;;;;;;14.45;5.05;;;11.80;77.00;;;;;;5095706;28;20541;-34
2022/05/08 01:27:55;;;;;;;12.98;5.32;;;11.80;76.90;;;;;;5094287;28;20032;-29
2022/05/08 01:30:22;;;;;;;15.85;5.18;;;11.80;77.40;;;;;;5095532;28;20027;-31
2022/05/08 01:32:48;;;;;;;11.38;4.75;;;11.80;76.70;;;;;;5095718;28;20604;-30
2022/05/08 01:35:14;;;;;;;12.90;5.38;;;11.80;76.70;;;;;;5095935;28;20016;-30
2022/05/08 01:37:39;;;;;;;14.73;5.15;;;11.80;76.30;;;;;;5095660;28;20024;-29
2022/05/08 01:40:07;;;;;;;16.13;4.90;;;11.70;76.80;;;;;;5095740;28;20024;-28
2022/05/08 01:42:32;;;;;;;15.32;4.28;;;11.70;76.20;;;;;;5095797;28;20020;-28
2022/05/08 01:44:58;;;;;;;15.68;4.25;;;11.70;76.00;;;;;;5095668;28;20421;-32
2022/05/08 01:50:08;;;;;;;14.73;4.35;;;11.70;75.90;;;;;;5095294;28;20160;-33
2022/05/08 01:52:34;;;;;;;16.95;4.43;;;11.60;75.70;;;;;;5095294;28;20391;-29
2022/05/08 01:55:01;;;;;;;12.13;4.25;;;11.60;75.70;;;;;;5095081;28;20032;-31
2022/05/08 01:57:27;;;;;;;13.93;3.42;;;11.60;75.70;;;;;;5095227;28;20060;-29
2022/05/08 01:59:52;;;;;;;12.00;3.65;;;11.60;75.70;;;;;;5094993;28;20099;-31
2022/05/08 02:02:19;;;;;;;12.75;3.67;;;11.60;75.60;;;;;;5093921;28;20448;-29
2022/05/08 02:04:45;;;;;;;12.30;4.22;;;11.60;75.50;;;;;;5095273;28;20035;-28
2022/05/08 02:07:11;;;;;;;12.13;3.40;;;11.60;75.50;;;;;;5095041;28;20024;-32
2022/05/08 02:09:37;;;;;;;14.40;3.53;;;11.50;75.40;;;;;;5095175;28;20429;-30
2022/05/08 02:12:04;;;;;;;13.60;3.22;;;11.50;75.30;;;;;;5093599;28;20016;-32
2022/05/08 02:14:29;;;;;;;9.90;3.25;;;11.50;75.30;;;;;;5094635;28;20013;-29
2022/05/08 02:16:55;;;;;;;10.20;3.22;;;11.50;75.20;;;;;;5094600;28;20020;-29
2022/05/08 02:19:21;;;;;;;14.13;3.80;;;11.50;75.20;;;;;;5094630;28;20067;-28
2022/05/08 02:21:47;;;;;;;12.70;4.43;;;11.50;75.20;;;;;;5093602;28;20116;-27
2022/05/08 02:24:13;;;;;;;14.73;3.85;;;11.50;75.10;;;;;;5094541;28;20052;-30
2022/05/08 02:26:38;;;;;;;16.95;4.00;;;11.40;75.10;;;;;;5093025;28;20062;-29
2022/05/08 02:29:05;;;;;;;12.15;3.47;;;11.40;75.20;;;;;;5094655;28;20060;-33
2022/05/08 02:31:31;;;;;;;10.43;3.35;;;11.30;75.30;;;;;;5094499;28;20028;-28
2022/05/08 02:33:57;;;;;;;12.57;3.53;;;11.30;75.30;;;;;;5094584;28;20065;-28
2022/05/08 02:36:22;;;;;;;14.02;4.00;;;11.30;75.30;;;;;;5094787;28;20503;-28
2022/05/08 02:38:48;;;;;;;13.57;3.80;;;11.30;75.30;;;;;;5094375;28;20043;-29
2022/05/08 02:41:14;;;;;;;14.82;3.75;;;11.30;75.30;;;;;;5094428;28;20391;-31
2022/05/08 02:43:39;;;;;;;14.55;3.72;;;11.30;75.40;;;;;;5094219;28;20021;-33
2022/05/08 02:46:05;;;;;;;18.20;3.72;;;11.30;75.40;;;;;;5094387;28;20114;-29
2022/05/08 02:48:31;;;;;;;14.27;4.25;;;11.30;75.40;;;;;;5094641;28;20052;-31
2022/05/08 02:50:57;;;;;;;14.60;3.58;;;11.30;75.40;;;;;;5094128;28;20023;-33
2022/05/08 02:53:23;;;;;;;18.25;3.72;;;11.20;75.30;;;;;;5094417;28;20031;-28
2022/05/08 02:58:33;;;;;;;14.98;3.55;;;11.20;75.30;;;;;;5093676;28;20055;-31
2022/05/08 03:01:04;;;;;;;13.88;3.53;;;11.20;75.40;;;;;;5094031;28;20028;-28
2022/05/08 03:03:30;;;;;;;12.73;3.72;;;11.20;75.40;;;;;;5093775;28;20027;-28
2022/05/08 03:05:55;;;;;;;18.60;4.03;;;11.10;75.40;;;;;;5093713;28;20499;-32
2022/05/08 03:08:21;;;;;;;16.25;3.55;;;11.10;75.40;;;;;;5093604;28;20016;-28
2022/05/08 03:13:35;;;;;;;12.15;3.10;;;11.00;75.50;;;;;;5093965;28;20495;-27
2022/05/08 03:16:01;;;;;;;12.73;3.25;;;11.10;75.50;;;;;;5093756;28;20301;-28
2022/05/08 03:18:27;;;;;;;15.60;3.58;;;11.00;75.30;;;;;;5093910;28;20349;-31
2022/05/08 03:20:52;;;;;;;15.32;3.08;;;11.10;75.30;;;;;;5093516;28;20080;-29
2022/05/08 03:23:18;;;;;;;10.50;3.28;;;11.00;75.30;;;;;;5092124;28;20012;-28
2022/05/08 03:25:44;;;;;;;11.32;2.90;;;11.00;75.40;;;;;;5093670;28;20032;-27
2022/05/08 03:28:10;;;;;;;14.98;3.40;;;11.00;75.30;;;;;;5093700;28;20023;-31
2022/05/08 03:30:35;;;;;;;11.88;3.40;;;11.00;75.30;;;;;;5093696;28;20030;-29
2022/05/08 03:33:01;;;;;;;8.30;2.70;;;10.90;75.30;;;;;;5093370;28;20008;-29
2022/05/08 03:35:26;;;;;;;9.80;2.70;;;10.90;75.40;;;;;;5093683;28;20028;-38
2022/05/08 03:37:52;;;;;;;11.73;3.00;;;10.90;75.50;;;;;;5093216;28;20099;-32
2022/05/08 03:40:18;;;;;;;13.23;3.00;;;10.90;75.50;;;;;;5093571;28;20521;-31
2022/05/08 03:42:43;;;;;;;15.20;3.22;;;10.90;75.50;;;;;;5093294;28;20020;-32
2022/05/08 03:45:10;;;;;;;13.77;2.83;;;10.90;75.40;;;;;;5093347;28;20026;-34
2022/05/08 03:47:35;;;;;;;15.70;3.03;;;10.90;75.30;;;;;;5093568;28;20017;-28
2022/05/08 03:50:02;;;;;;;14.32;2.90;;;10.90;75.30;;;;;;5093121;28;20439;-29
2022/05/08 03:52:28;;;;;;;11.93;3.05;;;10.90;75.30;;;;;;5093432;28;20012;-29
2022/05/08 03:54:53;;;;;;;11.60;2.97;;;10.90;75.30;;;;;;5092817;28;20031;-28
2022/05/08 03:57:19;;;;;;;14.75;3.10;;;10.90;75.30;;;;;;5092680;28;20070;-28
2022/05/08 03:59:44;;;;;;;11.82;2.72;;;10.90;75.30;;;;;;5092863;28;20076;-31
2022/05/08 04:02:10;;;;;;;16.17;3.25;;;11.00;75.30;;;;;;5093190;28;20151;-28
2022/05/08 04:04:36;;;;;;;14.65;3.17;;;10.90;75.10;;;;;;5092897;28;20016;-29
2022/05/08 04:07:02;;;;;;;12.93;3.40;;;10.90;75.10;;;;;;5092814;28;20027;-28
2022/05/08 04:09:28;;;;;;;12.27;3.63;;;10.90;75.10;;;;;;5092713;28;20049;-28
2022/05/08 04:11:53;;;;;;;9.48;2.85;;;10.90;75.20;;;;;;5092510;28;20066;-27
2022/05/08 04:14:19;;;;;;;9.70;2.53;;;10.80;75.20;;;;;;5092645;28;20012;-29
2022/05/08 04:16:47;;;;;;;12.35;2.65;;;10.80;75.30;;;;;;5092519;28;20024;-29
2022/05/08 04:19:13;;;;;;;13.57;2.90;;;10.80;75.30;;;;;;5092578;28;20364;-34
2022/05/08 04:21:38;;;;;;;13.07;2.83;;;10.80;75.30;;;;;;5092499;28;20107;-28
2022/05/08 04:24:19;;;;;;;11.35;3.33;;;10.80;75.30;;;;;;5092657;28;20047;-30
2022/05/08 04:26:46;;;;;;;11.38;3.33;;;10.70;75.20;;;;;;5092698;28;20434;-34
2022/05/08 04:29:12;;;;;;;10.77;2.75;;;10.60;75.30;;;;;;5092630;28;20032;-27
2022/05/08 04:31:37;;;;;;;13.88;2.63;;;10.60;75.40;;;;;;5092290;28;20020;-31
2022/05/08 04:34:03;;;;;;;16.27;3.95;;;10.60;75.50;;;;;;5092358;28;20329;-28
2022/05/08 04:36:29;;;;;;;12.82;3.15;;;10.50;75.60;;;;;;5092568;28;20055;-28
2022/05/08 04:38:55;;;;;;;13.07;3.20;;;10.50;75.60;;;;;;5091418;28;20031;-29
2022/05/08 04:41:20;;;;;;;12.93;3.35;;;10.50;75.80;;;;;;5092711;28;20032;-28
2022/05/08 04:43:46;;;;;;;12.45;3.15;;;10.40;75.80;;;;;;5092640;28;20077;-29
2022/05/08 04:46:12;;;;;;;11.10;2.92;;;10.40;75.80;;;;;;5095235;28;20024;-30
2022/05/08 04:48:38;;;;;;;14.25;3.42;;;10.40;76.40;;;;;;5096488;28;20400;-28
2022/05/08 04:51:07;;;;;;;14.52;3.35;;;10.40;75.80;;;;;;5096533;28;20020;-28
2022/05/08 04:53:32;;;;;;;10.60;2.88;;;10.40;75.90;;;;;;5096573;28;20113;-28
2022/05/08 04:55:59;;;;;;;12.43;3.75;;;10.40;75.90;;;;;;5096843;28;20193;-31
2022/05/08 04:58:29;;;;;;;11.40;3.03;;;10.40;75.80;;;;;;5096386;28;20035;-29
2022/05/08 05:00:58;;;;;;;14.93;3.85;;;10.40;75.90;;;;;;5096564;28;20042;-30
2022/05/08 05:03:24;;;;;;;12.23;2.95;;;10.40;75.90;;;;;;5096402;28;20475;-29
2022/05/08 05:05:50;;;;;;;11.93;3.22;;;10.40;75.90;;;;;;5096051;28;20032;-29
2022/05/08 05:08:15;;;;;;;10.27;2.70;;;10.40;75.90;;;;;;5096321;28;20028;-33
2022/05/08 05:10:41;;;;;;;11.13;2.80;;;10.30;75.80;;;;;;5096109;28;20020;-29
2022/05/08 05:13:06;;;;;;;11.80;3.15;;;10.30;75.80;;;;;;5096463;28;20048;-29
2022/05/08 05:15:32;;;;;;;13.95;3.53;;;10.30;75.80;;;;;;5096599;28;20024;-33
2022/05/08 05:18:01;;;;;;;13.95;3.50;;;10.30;75.80;;;;;;5096057;28;20545;-27
2022/05/08 05:20:27;;;;;;;13.57;3.50;;;10.30;75.90;;;;;;5096324;28;20529;-32
2022/05/08 05:22:52;;;;;;;14.85;3.35;;;10.30;75.90;;;;;;5096234;28;20054;-29
2022/05/08 05:25:18;;;;;;;10.73;2.67;;;10.30;75.90;;;;;;5096233;28;20415;-35
2022/05/08 05:27:43;;;;;;;10.60;3.00;;;10.30;75.90;;;;;;5096315;28;20069;-28
2022/05/08 05:30:10;;;;;;;15.13;3.13;;;10.30;75.80;;;;;;5095848;28;20364;-31
2022/05/08 05:32:35;;;;;;;8.48;3.05;;;10.30;75.80;;;;;;5095928;28;20020;-29
2022/05/08 05:35:01;;;;;;;12.52;3.15;;;10.30;75.80;;;;;;5095563;28;20513;-29
2022/05/08 05:37:26;;;;;;;14.95;3.25;;;10.30;75.70;;;;;;5094247;28;20035;-28
2022/05/08 05:39:52;;;;;;;10.68;2.88;;;10.40;75.70;;;;;;5095495;28;20111;-27
2022/05/08 05:42:18;;;;;;;10.88;3.13;;;10.40;75.60;;;;;;5095704;28;20021;-28
2022/05/08 05:44:43;;;;;;;10.77;2.92;;;10.40;75.60;;;;;;5095709;28;20024;-44
2022/05/08 05:49:53;;;;;;;12.15;2.95;;;10.40;75.30;;;;;;5095431;28;20059;-45
2022/05/08 05:52:18;;;;;;;10.75;2.88;;;10.50;75.30;;;;;;5095347;28;20028;-45
2022/05/08 05:54:44;;;;;;;15.20;2.90;;;10.50;75.20;;;;;;5094280;28;20020;-46
2022/05/08 05:57:09;;;;;;;11.60;2.90;;;10.50;75.00;;;;;;5094059;28;20048;-45
2022/05/08 05:59:35;;;;;;;10.73;2.60;;;10.60;74.90;;;;;;5095549;28;20494;-45
2022/05/08 06:02:01;;;;;;;10.90;2.78;;;10.60;74.80;;;;;;5095238;28;20032;-48
2022/05/08 06:04:26;;;;;;;8.65;2.92;;;10.70;74.70;;;;;;5095081;28;20028;-45
2022/05/08 06:06:52;;;;;;;11.38;2.97;;;10.80;74.50;;;;;;5095049;28;20115;-45
2022/05/08 06:09:18;;;;;;;9.30;2.47;;;10.80;74.40;;;;;;5093962;28;20093;-45
2022/05/08 06:11:44;;;;;;;12.30;2.65;;;10.80;74.30;;;;;;5095348;28;20070;-45
2022/05/08 06:14:10;;;;;;;11.60;2.60;;;10.90;74.20;;;;;;5095025;28;20547;-46
2022/05/08 06:16:35;;;;;;;10.10;2.17;;;11.00;74.00;;;;;;5094966;28;20020;-44
2022/05/08 06:19:01;;;;;;;8.90;2.53;;;11.00;73.80;;;;;;5094676;28;20031;-46
2022/05/08 06:21:27;;;;;;;14.07;3.15;;;11.10;73.20;;;;;;5094614;28;20028;-45
2022/05/08 06:23:55;;;;;;;8.80;2.70;;;11.10;72.70;;;;;;5094838;28;20026;-45
2022/05/08 06:26:22;;;;;;;9.38;2.22;;;11.00;72.90;;;;;;5094652;28;20085;-46
2022/05/08 06:28:48;;;;;;;8.90;2.45;;;11.10;73.00;;;;;;5094572;28;20046;-45
2022/05/08 06:31:16;;;;;;;12.48;2.20;;;11.10;72.90;;;;;;5094772;28;20043;-46
2022/05/08 06:33:43;;;;;;;14.90;2.75;;;11.20;72.80;;;;;;5094379;28;20020;-45
2022/05/08 06:36:09;;;;;;;8.98;2.60;;;11.20;72.40;;;;;;5092990;28;20013;-45
2022/05/08 06:38:34;;;;;;;10.15;2.72;;;11.30;72.40;;;;;;5094746;28;20035;-45
2022/05/08 06:41:00;;;;;;;10.18;2.10;;;11.30;72.30;;;;;;5094420;28;20336;-45
2022/05/08 06:43:26;;;;;;;9.93;2.28;;;11.40;72.10;;;;;;5094406;28;20020;-46
2022/05/08 06:45:51;;;;;;;8.95;2.83;;;11.40;72.00;;;;;;5094540;28;20127;-45
2022/05/08 06:48:17;;;;;;;8.20;2.10;;;11.50;71.90;;;;;;5094236;28;20401;-45
2022/05/08 06:50:43;;;;;;;10.25;2.50;;;11.60;71.60;;;;;;5094241;28;20019;-45
2022/05/08 06:53:09;;;;;;;7.80;2.33;;;11.60;71.50;;;;;;5094524;28;20027;-45
2022/05/08 06:55:35;;;;;;;8.27;2.30;;;11.60;71.20;;;;;;5094458;28;20486;-45
2022/05/08 06:58:01;;;;;;;10.25;2.38;;;11.70;71.20;;;;;;5094112;28;20040;-45
2022/05/08 07:03:11;;;;;;;7.85;2.13;;;11.70;70.80;;;;;;5094387;28;20031;-45
2022/05/08 07:05:45;;;;;;;9.10;1.98;;;11.80;71.00;;;;;;5094123;28;20462;-45
2022/05/08 07:08:10;;;;;;;8.60;1.88;;;11.80;70.60;;;;;;5093816;28;20451;-45
2022/05/08 07:10:36;;;;;;;6.10;1.80;;;11.90;70.30;;;;;;5094078;28;20044;-45
2022/05/08 07:13:02;;;;;;;9.57;2.00;;;11.90;70.30;;;;;;5093778;28;20024;-45
2022/05/08 07:15:28;;;;;;;7.63;2.08;;;11.90;70.20;;;;;;5093783;28;20482;-46
2022/05/08 07:17:54;;;;;;;6.90;1.65;;;12.00;70.00;;;;;;5093828;28;20066;-46
2022/05/08 07:20:19;;;;;;;9.27;2.50;;;12.00;69.40;;;;;;5093701;28;20119;-46
2022/05/08 07:22:45;;;;;;;9.38;1.98;;;12.10;69.50;;;;;;5092185;28;20082;-45
2022/05/08 07:25:12;;;;;;;5.53;1.77;;;12.00;68.70;;;;;;5093819;28;20024;-45
2022/05/08 07:27:39;;;;;;;11.05;2.20;;;12.10;69.40;;;;;;5093768;28;20099;-43
2022/05/08 07:30:06;;;;;;;5.93;1.80;;;12.10;68.80;;;;;;5093731;28;20036;-45
2022/05/08 07:32:35;;;;;;;10.18;2.08;;;12.10;68.70;;;;;;5093591;28;20012;-45
2022/05/08 07:37:46;;;;;;;10.57;2.10;;;12.10;67.90;;;;;;5093617;28;20023;-28
2022/05/08 07:40:12;;;;;;;6.82;2.10;;;12.10;67.90;;;;;;5093223;28;20024;-28
2022/05/08 07:42:38;;;;;;;7.70;1.90;;;12.10;67.40;;;;;;5093099;28;20028;-30
2022/05/08 07:45:05;;;;;;;8.45;2.60;;;12.10;67.70;;;;;;5093295;28;20020;-28
2022/05/08 07:47:31;;;;;;;7.72;2.00;;;12.10;67.60;;;;;;5093243;28;20024;-27
2022/05/08 07:49:56;;;;;;;7.07;2.00;;;12.20;67.10;;;;;;5093036;28;20536;-29
2022/05/08 07:52:22;;;;;;;13.73;2.40;;;12.20;67.20;;;;;;5093091;28;20066;-30
2022/05/08 07:54:48;;;;;;;7.72;2.28;;;12.20;66.70;;;;;;5093067;28;20032;-33
2022/05/08 07:57:13;;;;;;;7.10;2.47;;;12.20;66.70;;;;;;5091843;28;20097;-29
2022/05/08 07:59:39;;;;;;;8.40;2.50;;;12.30;66.20;;;;;;5092847;28;20028;-30
2022/05/08 08:02:05;;;;;;;10.93;2.80;;;12.30;66.50;;;;;;5092890;28;20031;-28
2022/05/08 08:04:31;;;;;;;7.97;2.35;;;12.30;66.70;;;;;;5092747;28;20056;-30
2022/05/08 08:06:57;;;;;;;5.25;2.00;;;12.40;66.70;;;;;;5093077;28;20040;-29
2022/05/08 08:09:23;;;;;;;6.22;1.70;;;12.50;66.60;;;;;;5092716;28;20043;-28
2022/05/08 08:11:49;;;;;;;8.07;2.17;;;12.60;66.70;;;;;;5093367;28;20340;-29
2022/05/08 08:14:15;;;;;;;6.13;2.08;;;12.70;66.30;;;;;;5093175;28;20032;-32
2022/05/08 08:16:41;;;;;;;6.78;2.40;;;12.80;66.20;;;;;;5092804;28;20430;-29
2022/05/08 08:19:07;;;;;;;8.05;2.00;;;12.90;65.80;;;;;;5092600;28;20085;-30
2022/05/08 08:21:33;;;;;;;8.85;2.25;;;12.90;65.70;;;;;;5092204;28;20028;-31
2022/05/08 08:23:59;;;;;;;7.30;1.80;;;13.00;65.70;;;;;;5092547;28;20055;-29
2022/05/08 08:26:25;;;;;;;7.28;2.20;;;13.00;65.60;;;;;;5092782;28;20030;-31
2022/05/08 08:28:50;;;;;;;6.93;2.47;;;13.10;64.50;;;;;;5092396;28;20026;-30
2022/05/08 08:31:16;;;;;;;8.65;2.42;;;13.00;64.40;;;;;;5092384;28;20123;-29
2022/05/08 08:33:46;;;;;;;6.47;2.33;;;13.10;64.10;;;;;;5092648;28;20032;-30
2022/05/08 08:36:12;;;;;;;6.95;1.88;;;13.10;64.20;;;;;;5092413;28;20024;-28
2022/05/08 08:38:38;;;;;;;7.00;2.13;;;13.10;63.90;;;;;;5092641;28;20036;-28
2022/05/08 08:41:05;;;;;;;7.82;1.80;;;13.20;63.90;;;;;;5091219;28;20057;-30
2022/05/08 08:49:02;;;;;;;7.97;2.33;;;13.40;63.90;;;;;;5092678;28;20050;-33
2022/05/08 08:51:28;;;;;;;5.40;2.17;;;13.50;63.40;;;;;;5092938;28;20031;-32
2022/05/08 08:53:55;;;;;;;6.80;1.85;;;13.50;63.10;;;;;;5092572;28;20024;-32
2022/05/08 08:56:22;;;;;;;7.68;2.40;;;13.50;63.10;;;;;;5092600;28;20028;-33
2022/05/08 08:58:48;;;;;;;5.60;2.00;;;13.50;62.50;;;;;;5092378;28;20047;-31
2022/05/08 09:01:16;;;;;;;7.53;1.90;;;13.60;62.90;;;;;;5092372;28;20035;-28
2022/05/08 09:03:42;;;;;;;4.88;1.90;;;13.70;62.90;;;;;;5092512;28;20024;-31
2022/05/08 09:06:09;;;;;;;6.78;2.00;;;13.80;62.50;;;;;;5092636;28;20029;-28
2022/05/08 09:08:38;;;;;;;6.63;1.90;;;13.80;62.00;;;;;;5092558;28;20494;-27
2022/05/08 09:11:03;;;;;;;7.28;2.05;;;13.80;61.50;;;;;;5092505;28;20095;-29
2022/05/08 09:13:30;;;;;;;8.02;2.00;;;13.80;61.70;;;;;;5092201;28;20248;-29
2022/05/08 09:16:02;;;;;;;6.75;2.15;;;13.90;60.50;;;;;;5092280;28;20071;-30
2022/05/08 09:18:28;;;;;;;4.00;1.67;;;13.90;61.00;;;;;;5092482;28;20460;-30
2022/05/08 09:21:02;;;;;;;5.00;2.13;;;13.90;60.90;;;;;;5091967;28;20028;-28
2022/05/08 09:23:28;;;;;;;8.50;2.55;;;14.00;61.00;;;;;;5091846;28;20039;-29
2022/05/08 09:26:01;;;;;;;4.82;1.90;;;14.00;60.30;;;;;;5091814;28;20099;-28
2022/05/08 09:28:31;;;;;;;6.22;1.95;;;14.10;60.80;;;;;;5091805;28;20040;-28
2022/05/08 09:31:05;;;;;;;5.68;2.25;;;14.10;60.70;;;;;;5092228;28;20020;-29
2022/05/08 09:33:39;;;;;;;8.85;1.92;;;14.30;60.50;;;;;;5095356;28;20016;-30
2022/05/08 09:36:06;;;;;;;8.20;1.90;;;14.30;60.40;;;;;;5095526;28;20439;-30
2022/05/08 09:38:45;;;;;;;8.40;2.20;;;14.40;60.00;;;;;;5095378;28;20027;-29
2022/05/08 09:41:11;;;;;;;6.32;2.10;;;14.40;59.30;;;;;;5095719;28;20063;-29
2022/05/08 09:43:38;;;;;;;4.63;1.88;;;14.40;58.60;;;;;;5095610;28;20016;-29
2022/05/08 09:46:04;;;;;;;6.95;1.90;;;14.40;59.00;;;;;;5095482;28;20448;-29
2022/05/08 09:48:35;;;;;;;6.53;2.28;;;14.40;59.10;;;;;;5093916;28;20073;-47
2022/05/08 09:51:04;;;;;;;5.43;1.67;;;14.50;58.60;;;;;;5095143;28;20463;-45
2022/05/08 09:53:31;;;;;;;6.25;2.13;;;14.60;58.20;;;;;;5095567;28;20024;-46
2022/05/08 09:55:59;;;;;;;7.90;2.30;;;14.60;57.00;;;;;;5093908;28;20039;-45
2022/05/08 09:58:25;;;;;;;5.85;1.70;;;14.60;57.40;;;;;;5095077;28;20044;-45
2022/05/08 10:00:52;;;;;;;5.60;2.20;;;14.70;57.40;;;;;;5095026;28;20107;-45
2022/05/08 10:03:18;;;;;;;5.63;1.83;;;14.80;57.00;;;;;;5093868;28;20021;-45
2022/05/08 10:05:45;;;;;;;6.78;2.00;;;14.80;56.40;;;;;;5095300;28;20016;-45
2022/05/08 10:08:13;;;;;;;8.90;2.13;;;14.90;56.60;;;;;;5094809;28;20027;-45
2022/05/08 10:13:56;;;;;;;5.93;2.00;;;14.90;56.20;;;;;;5095398;28;20376;-45
2022/05/08 10:16:44;;;;;;;6.25;1.90;;;15.00;55.60;;;;;;5095214;28;20468;-46
2022/05/08 10:19:19;;;;;;;6.05;2.15;;;15.00;55.00;;;;;;5095046;28;20082;-47
2022/05/08 10:22:36;;;;;;;7.70;2.08;;;15.10;54.00;;;;;;5094582;28;20073;-46
2022/05/08 10:24:54;;;;;;;8.18;2.15;;;15.10;54.20;;;;;;5088705;28;20127;-32
2022/05/08 10:27:32;;;;;;;6.03;1.80;;;15.10;54.10;;;;;;5094624;28;20063;-29
2022/05/08 10:29:57;;;;;;;6.15;1.85;;;15.10;54.50;;;;;;5094303;28;20636;-28
2022/05/08 10:32:38;;;;;;;7.05;2.08;;;15.20;54.80;;;;;;5094273;28;20050;-34
2022/05/08 10:35:06;;;;;;;7.10;2.00;;;15.30;54.30;;;;;;5094445;28;20028;-28
2022/05/08 10:37:32;;;;;;;6.43;1.90;;;15.40;54.30;;;;;;5094287;28;20024;-46
2022/05/08 10:39:58;;;;;;;5.82;2.30;;;15.50;53.70;;;;;;5092811;28;20082;-45
2022/05/08 10:42:30;;;;;;;8.75;2.00;;;15.50;53.90;;;;;;5093691;28;20020;-45
2022/05/08 10:44:57;;;;;;;5.55;1.73;;;15.50;54.00;;;;;;5093770;28;20024;-45
2022/05/08 10:47:36;;;;;;;3.45;1.77;;;15.50;53.90;;;;;;5094240;28;20103;-44
2022/05/08 10:50:03;;;;;;;4.25;1.40;;;15.60;54.10;;;;;;5094178;28;20115;-44
2022/05/08 10:52:30;;;;;;;4.75;1.52;;;15.80;54.30;;;;;;5093929;28;20024;-35
2022/05/08 10:55:00;;;;;;;6.38;1.75;;;15.80;54.40;;;;;;5094145;28;20028;-31
2022/05/08 10:57:29;;;;;;;5.10;1.67;;;15.90;54.90;;;;;;5093899;28;20048;-29
2022/05/08 10:59:55;;;;;;;5.05;1.60;;;16.10;55.20;;;;;;5093862;28;20020;-28
2022/05/08 11:02:40;;;;;;;4.20;1.70;;;16.20;55.00;;;;;;5093757;28;20020;-29
2022/05/08 11:05:07;;;;;;;5.60;1.77;;;16.40;54.80;;;;;;5093835;28;20136;-28
2022/05/08 11:07:33;;;;;;;4.78;1.55;;;16.40;54.20;;;;;;5094033;28;20035;-29
2022/05/08 11:09:59;;;;;;;4.38;1.60;;;16.50;54.30;;;;;;5093791;28;20020;-44
2022/05/08 11:12:25;;;;;;;3.90;1.60;;;16.50;54.20;;;;;;5093974;28;20051;-44
2022/05/08 11:14:50;;;;;;;6.07;2.10;;;16.60;54.00;;;;;;5093576;28;20020;-45
2022/05/08 11:17:17;;;;;;;6.88;2.10;;;16.70;51.50;;;;;;5093684;28;20028;-44
2022/05/08 11:20:01;;;;;;;7.28;2.10;;;16.60;50.70;;;;;;5093815;28;20030;-44
2022/05/08 11:22:26;;;;;;;5.03;1.58;;;16.60;51.30;;;;;;5093913;28;20464;-46
2022/05/08 11:25:10;;;;;;;4.18;1.48;;;16.60;51.50;;;;;;5093773;28;20059;-45
2022/05/08 11:27:36;;;;;;;4.55;1.35;;;16.70;51.10;;;;;;5093855;28;20028;-45
2022/05/08 11:30:02;;;;;;;4.45;1.60;;;16.80;51.40;;;;;;5093683;28;20028;-45
2022/05/08 11:38:03;;;;;;;5.30;1.40;;;17.00;51.10;;;;;;5093233;28;20093;-46
2022/05/08 11:40:29;;;;;;;3.55;1.77;;;17.10;51.20;;;;;;5092957;28;20032;-45
2022/05/08 11:42:55;;;;;;;5.82;2.08;;;17.10;51.40;;;;;;5093056;28;20039;-46
2022/05/08 11:45:21;;;;;;;5.32;1.80;;;17.20;50.10;;;;;;5093453;28;20028;-46
2022/05/08 11:47:50;;;;;;;5.28;1.75;;;17.10;49.90;;;;;;5093145;28;20452;-46
2022/05/08 11:50:16;;;;;;;5.22;1.88;;;17.10;50.00;;;;;;5091797;28;20059;-50
2022/05/08 11:52:42;;;;;;;5.95;1.95;;;17.10;50.30;;;;;;5093084;28;20491;-45
2022/05/08 11:55:08;;;;;;;6.22;1.92;;;17.20;49.60;;;;;;5092147;28;20379;-45
2022/05/08 11:57:42;;;;;;;3.85;1.25;;;17.20;49.70;;;;;;5093013;28;20126;-45
2022/05/08 12:00:12;;;;;;;3.13;1.67;;;17.30;49.90;;;;;;5093264;28;20048;-45
2022/05/08 12:02:43;;;;;;;4.07;1.40;;;17.30;50.10;;;;;;5093135;28;20031;-45
2022/05/08 12:05:19;;;;;;;3.38;1.30;;;17.50;50.30;;;;;;5092963;28;20028;-44
2022/05/08 12:07:45;;;;;;;4.28;1.63;;;17.70;50.20;;;;;;5093001;28;20027;-45
2022/05/08 12:10:12;;;;;;;3.03;1.52;;;17.80;49.60;;;;;;5092797;28;20103;-46
2022/05/08 12:12:39;;;;;;;3.00;1.23;;;17.80;49.70;;;;;;5093192;28;20028;-45
2022/05/08 12:15:08;;;;;;;2.58;1.20;;;17.90;50.00;;;;;;5093187;28;20020;-45
2022/05/08 12:17:39;;;;;;;2.22;1.05;;;18.10;49.90;;;;;;5093379;28;20111;-44
2022/05/08 12:20:11;;;;;;;4.70;1.70;;;18.10;49.70;;;;;;5092892;28;20028;-45
2022/05/08 12:22:37;;;;;;;5.40;1.40;;;18.20;48.60;;;;;;5093047;28;20035;-45
2022/05/08 12:25:03;;;;;;;3.80;1.42;;;18.20;48.00;;;;;;5092916;28;20368;-47
2022/05/08 12:27:29;;;;;;;4.75;1.30;;;18.20;48.00;;;;;;5093246;28;20020;-44
2022/05/08 12:29:56;;;;;;;2.70;1.40;;;18.20;48.00;;;;;;5093086;28;20016;-46
2022/05/08 12:32:24;;;;;;;3.05;1.60;;;18.20;47.40;;;;;;5093209;28;20149;-45
2022/05/08 12:34:51;;;;;;;3.92;1.52;;;18.20;46.90;;;;;;5092979;28;20025;-45
2022/05/08 12:37:17;;;;;;;2.35;1.40;;;18.20;47.30;;;;;;5093205;28;20892;-44
2022/05/08 12:39:43;;;;;;;7.25;1.75;;;18.30;47.50;;;;;;5091468;28;20430;-45
2022/05/08 12:42:10;;;;;;;5.03;1.70;;;18.40;45.80;;;;;;5092825;28;20078;-45
2022/05/08 12:44:36;;;;;;;3.75;1.40;;;18.40;46.50;;;;;;5092839;28;20034;-46
2022/05/08 12:47:08;;;;;;;5.10;1.20;;;18.40;46.40;;;;;;5092872;28;20036;-45
2022/05/08 12:49:34;;;;;;;4.45;1.40;;;18.50;46.60;;;;;;5093030;28;20033;-46
2022/05/08 12:52:02;;;;;;;5.40;1.98;;;18.60;46.50;;;;;;5092922;28;20452;-46
2022/05/08 12:54:27;;;;;;;6.30;1.70;;;18.70;46.00;;;;;;5092506;28;20383;-45
2022/05/08 12:56:53;;;;;;;3.80;1.38;;;18.60;45.30;;;;;;5092683;28;20036;-46
2022/05/08 13:02:03;;;;;;;4.97;1.30;;;18.70;46.60;;;;;;5092224;28;20371;-46
2022/05/08 13:04:29;;;;;;;2.95;1.27;;;18.80;46.10;;;;;;5092860;28;20028;-45
2022/05/08 13:06:54;;;;;;;5.53;1.35;;;18.90;46.00;;;;;;5095228;28;20441;-45
2022/05/08 13:09:20;;;;;;;2.55;1.05;;;19.00;46.10;;;;;;5096437;28;20077;-44
2022/05/08 13:11:46;;;;;;;4.38;1.65;;;19.10;46.30;;;;;;5096446;28;20029;-45
2022/05/08 13:14:12;;;;;;;3.63;1.30;;;19.20;45.60;;;;;;5096736;28;20020;-44
2022/05/08 13:16:38;;;;;;;3.97;1.20;;;19.30;45.70;;;;;;5096492;28;20024;-46